Time;durP1;ratioP1;P1;durP2;ratioP2;P2;SDS_P1;SDS_P2;PMS_P1;PMS_P2;Temp;Humidity;BMP_temperature;BMP_pressure;BME280_temperature;BME280_humidity;BME280_pressure;Samples;Min_cycle;Max_cycle;Signal;HPM_P1;HPM_P2
2023/08/08 00:01:37;;;;;;;4.30;1.90;;;;;;;15.14;100.00;99106.00;105942;1250;71383;-74
2023/08/08 00:04:04;;;;;;;3.90;2.10;;;;;;;15.13;100.00;99105.35;105899;1250;71419;-74
2023/08/08 00:06:31;;;;;;;2.00;1.90;;;;;;;15.12;100.00;99102.25;105945;1250;61235;-73
2023/08/08 00:08:57;;;;;;;3.20;2.20;;;;;;;15.11;100.00;99103.89;105934;1253;61245;-73
2023/08/08 00:11:24;;;;;;;2.60;2.00;;;;;;;15.11;100.00;99104.75;105918;1249;74744;-73
2023/08/08 00:13:51;;;;;;;2.40;2.20;;;;;;;15.12;100.00;99107.91;105948;1253;61339;-73
2023/08/08 00:16:17;;;;;;;3.20;2.00;;;;;;;15.11;100.00;99113.42;105893;1253;71349;-74
2023/08/08 00:18:44;;;;;;;2.90;1.90;;;;;;;15.10;100.00;99111.20;105912;1251;61283;-74
2023/08/08 00:21:10;;;;;;;4.80;2.70;;;;;;;15.09;100.00;99116.95;105901;1250;61672;-74
2023/08/08 00:23:37;;;;;;;1.90;1.70;;;;;;;15.07;100.00;99124.83;105914;1250;74827;-73
2023/08/08 00:26:04;;;;;;;2.10;2.00;;;;;;;15.03;100.00;99130.51;105922;1253;70953;-73
2023/08/08 00:28:31;;;;;;;3.10;2.40;;;;;;;15.00;100.00;99129.83;105904;1250;71209;-74
2023/08/08 00:30:58;;;;;;;3.20;2.10;;;;;;;14.96;100.00;99133.20;105928;1250;61355;-74
2023/08/08 00:33:24;;;;;;;2.40;2.20;;;;;;;14.94;100.00;99132.83;105884;1251;61263;-74
2023/08/08 00:35:51;;;;;;;2.40;2.20;;;;;;;14.93;100.00;99136.04;105913;1253;74665;-73
2023/08/08 00:38:18;;;;;;;3.00;2.20;;;;;;;14.93;100.00;99133.25;105929;1251;71075;-73
2023/08/08 00:40:45;;;;;;;5.00;1.90;;;;;;;14.92;100.00;99127.64;105906;1253;71435;-73
2023/08/08 00:43:12;;;;;;;1.90;1.80;;;;;;;14.92;100.00;99130.50;105959;1250;61255;-74
2023/08/08 00:45:40;;;;;;;8.10;1.80;;;;;;;14.91;100.00;99124.91;105949;1251;61224;-74
2023/08/08 00:48:09;;;;;;;3.90;2.10;;;;;;;14.89;100.00;99126.21;105982;1250;74403;-73
2023/08/08 00:50:36;;;;;;;2.70;2.10;;;;;;;14.88;100.00;99128.77;105936;1250;70882;-73
2023/08/08 00:53:06;;;;;;;1.80;1.70;;;;;;;14.85;100.00;99130.87;105980;1251;72451;-74
2023/08/08 00:55:32;;;;;;;7.30;2.30;;;;;;;14.81;100.00;99130.89;105927;1253;61356;-74
2023/08/08 00:57:59;;;;;;;2.70;2.10;;;;;;;14.79;100.00;99126.10;105777;1251;61513;-74
2023/08/08 01:00:26;;;;;;;4.30;2.00;;;;;;;14.76;100.00;99125.04;105998;1251;74544;-74
2023/08/08 01:02:53;;;;;;;2.70;2.00;;;;;;;14.73;100.00;99124.65;105968;1250;71100;-74
2023/08/08 01:05:20;;;;;;;2.60;2.20;;;;;;;14.71;100.00;99126.38;105886;1253;73062;-73
2023/08/08 01:08:06;;;;;;;6.60;2.50;;;;;;;14.70;100.00;99126.11;105937;1250;61380;-73
2023/08/08 01:10:38;;;;;;;4.30;2.20;;;;;;;14.69;100.00;99125.95;105928;1252;61372;-73
2023/08/08 01:13:19;;;;;;;2.80;2.30;;;;;;;14.69;100.00;99126.83;106028;1253;72078;-73
2023/08/08 01:15:46;;;;;;;5.90;2.60;;;;;;;14.69;100.00;99128.46;105957;1250;69730;-74
2023/08/08 01:18:14;;;;;;;4.50;2.30;;;;;;;14.67;100.00;99134.56;106037;1253;72734;-75
2023/08/08 01:20:42;;;;;;;2.80;2.50;;;;;;;14.65;100.00;99133.80;105835;1251;61492;-74
2023/08/08 01:23:11;;;;;;;3.10;2.80;;;;;;;14.62;100.00;99141.38;106007;1251;61269;-73
2023/08/08 01:25:39;;;;;;;3.20;2.30;;;;;;;14.60;100.00;99142.37;106007;1250;74806;-74
2023/08/08 01:28:06;;;;;;;3.80;2.60;;;;;;;14.58;100.00;99139.11;105887;1253;71449;-75
2023/08/08 01:30:33;;;;;;;3.70;2.30;;;;;;;14.57;100.00;99142.67;105883;1253;71214;-73
2023/08/08 01:33:01;;;;;;;2.80;2.50;;;;;;;14.56;100.00;99145.92;105907;1251;61434;-74
2023/08/08 01:35:33;;;;;;;3.20;2.50;;;;;;;14.54;100.00;99149.41;105934;1253;61276;-74
2023/08/08 01:38:04;;;;;;;3.40;2.20;;;;;;;14.50;100.00;99150.32;105969;1251;72351;-74
2023/08/08 01:40:32;;;;;;;3.40;2.00;;;;;;;14.46;100.00;99149.83;105979;1250;71115;-73
2023/08/08 01:42:58;;;;;;;3.30;2.20;;;;;;;14.44;100.00;99153.45;105802;1249;72701;-73
2023/08/08 01:45:25;;;;;;;2.40;2.20;;;;;;;14.43;100.00;99153.71;105680;1257;61188;-74
2023/08/08 01:47:52;;;;;;;2.70;2.10;;;;;;;14.42;100.00;99157.30;105890;1250;61244;-75
2023/08/08 01:50:21;;;;;;;3.00;2.40;;;;;;;14.40;100.00;99156.68;105992;1250;74415;-74
2023/08/08 01:52:48;;;;;;;2.60;2.20;;;;;;;14.38;100.00;99155.59;105967;1250;70885;-73
2023/08/08 01:55:14;;;;;;;4.60;2.10;;;;;;;14.35;100.00;99155.59;105943;1251;72605;-73
2023/08/08 01:57:41;;;;;;;2.40;2.30;;;;;;;14.31;100.00;99159.84;105900;1253;61301;-75
2023/08/08 02:00:09;;;;;;;3.00;2.20;;;;;;;14.29;100.00;99161.01;105898;1254;61288;-73
2023/08/08 02:02:42;;;;;;;2.50;2.20;;;;;;;14.27;100.00;99160.92;105865;1253;74682;-73
2023/08/08 02:05:10;;;;;;;2.20;2.00;;;;;;;14.26;100.00;99167.20;105953;1251;69885;-74
2023/08/08 02:07:37;;;;;;;2.20;2.00;;;;;;;14.25;100.00;99172.71;105942;1251;72678;-74
2023/08/08 02:10:04;;;;;;;2.40;2.10;;;;;;;14.23;100.00;99177.59;105913;1253;61305;-74
2023/08/08 02:12:31;;;;;;;2.70;2.30;;;;;;;14.21;100.00;99175.40;105877;1253;61267;-74
2023/08/08 02:14:58;;;;;;;2.90;2.20;;;;;;;14.20;100.00;99177.92;105883;1249;74503;-73
2023/08/08 02:17:25;;;;;;;2.50;2.30;;;;;;;14.19;100.00;99180.47;105913;1251;70810;-73
2023/08/08 02:19:52;;;;;;;4.10;2.30;;;;;;;14.16;100.00;99182.75;105862;1251;71139;-73
2023/08/08 02:22:19;;;;;;;7.20;2.50;;;;;;;14.14;100.00;99186.18;105934;1251;61351;-74
2023/08/08 02:24:46;;;;;;;4.10;2.30;;;;;;;14.13;100.00;99191.54;105920;1249;61181;-74
2023/08/08 02:27:12;;;;;;;2.80;2.30;;;;;;;14.13;100.00;99190.30;105915;1253;73183;-74
2023/08/08 02:29:39;;;;;;;2.40;2.10;;;;;;;14.11;100.00;99194.23;105879;1250;70892;-75
2023/08/08 02:32:06;;;;;;;3.10;2.30;;;;;;;14.10;100.00;99198.37;105881;1253;62019;-73
2023/08/08 02:34:33;;;;;;;4.90;2.30;;;;;;;14.10;100.00;99196.45;105922;1251;61279;-73
2023/08/08 02:36:59;;;;;;;5.50;2.40;;;;;;;14.10;100.00;99194.86;105920;1250;61300;-75
2023/08/08 02:39:26;;;;;;;3.50;2.20;;;;;;;14.11;100.00;99192.50;105927;1253;73152;-74
2023/08/08 02:41:53;;;;;;;5.40;2.00;;;;;;;14.11;100.00;99192.83;105916;1251;70962;-73
2023/08/08 02:44:20;;;;;;;3.50;2.50;;;;;;;14.10;100.00;99195.38;105888;1251;70550;-75
2023/08/08 02:46:46;;;;;;;2.50;2.30;;;;;;;14.09;100.00;99197.38;105813;1250;61260;-74
2023/08/08 02:49:13;;;;;;;5.00;2.50;;;;;;;14.08;100.00;99204.30;105899;1251;61330;-74
2023/08/08 02:51:39;;;;;;;3.40;2.60;;;;;;;14.07;100.00;99200.50;105935;1253;61157;-74
2023/08/08 02:54:07;;;;;;;3.20;2.40;;;;;;;14.05;100.00;99199.35;105955;1250;70818;-74
2023/08/08 02:56:34;;;;;;;4.50;2.00;;;;;;;14.04;100.00;99198.00;105778;1253;72730;-75
2023/08/08 02:59:01;;;;;;;2.80;2.40;;;;;;;14.05;100.00;99194.97;105733;1253;61808;-74
2023/08/08 03:01:28;;;;;;;2.40;2.20;;;;;;;14.04;100.00;99191.98;105895;1250;61298;-75
2023/08/08 03:03:56;;;;;;;2.10;1.90;;;;;;;14.05;100.00;99191.08;105904;1253;74626;-74
2023/08/08 03:06:23;;;;;;;2.60;2.30;;;;;;;14.07;100.00;99195.73;105928;1253;70838;-73
2023/08/08 03:08:51;;;;;;;2.50;2.30;;;;;;;14.07;100.00;99197.83;105973;1250;72736;-75
2023/08/08 03:11:18;;;;;;;2.80;2.10;;;;;;;14.07;100.00;99199.76;105878;1251;61319;-74
2023/08/08 03:13:46;;;;;;;3.20;2.10;;;;;;;14.07;100.00;99199.79;106008;1251;61192;-74
2023/08/08 03:16:12;;;;;;;6.50;2.40;;;;;;;14.07;100.00;99208.23;105957;1250;73156;-74
2023/08/08 03:18:40;;;;;;;4.90;2.40;;;;;;;14.08;100.00;99209.41;105858;1250;71008;-74
2023/08/08 03:21:07;;;;;;;2.50;2.30;;;;;;;14.09;100.00;99209.89;105890;1250;72497;-74
2023/08/08 03:23:34;;;;;;;2.60;2.20;;;;;;;14.08;100.00;99218.06;105900;1251;61279;-74
2023/08/08 03:26:01;;;;;;;2.70;2.30;;;;;;;14.05;100.00;99218.20;105935;1250;61329;-74
2023/08/08 03:28:28;;;;;;;2.50;2.20;;;;;;;14.03;100.00;99225.93;105936;1253;73348;-74
2023/08/08 03:30:55;;;;;;;6.90;2.70;;;;;;;14.03;100.00;99233.35;105969;1250;71183;-74
2023/08/08 03:33:22;;;;;;;5.40;2.50;;;;;;;14.02;100.00;99246.23;105907;1249;72540;-74
2023/08/08 03:35:49;;;;;;;5.70;2.40;;;;;;;14.03;100.00;99253.95;105881;1251;62043;-75
2023/08/08 03:38:16;;;;;;;2.80;2.10;;;;;;;14.02;100.00;99255.07;105948;1253;61212;-73
2023/08/08 03:40:43;;;;;;;4.40;2.20;;;;;;;14.01;100.00;99252.46;105889;1255;74373;-74
2023/08/08 03:43:10;;;;;;;4.50;2.40;;;;;;;14.02;100.00;99258.23;105863;1250;69505;-74
2023/08/08 03:45:36;;;;;;;7.90;2.90;;;;;;;14.05;100.00;99257.94;105934;1250;72598;-74
2023/08/08 03:48:03;;;;;;;3.10;2.40;;;;;;;14.09;100.00;99265.30;105895;1250;61947;-75
2023/08/08 03:50:30;;;;;;;3.40;2.40;;;;;;;14.12;100.00;99265.63;105861;1256;61296;-74
2023/08/08 03:52:57;;;;;;;5.00;3.10;;;;;;;14.18;100.00;99264.13;105734;1256;61302;-74
2023/08/08 03:55:25;;;;;;;4.80;3.20;;;;;;;14.23;100.00;99267.39;106091;1250;70969;-74
2023/08/08 03:57:52;;;;;;;3.60;2.60;;;;;;;14.28;100.00;99277.16;105759;1256;72541;-74
2023/08/08 04:00:18;;;;;;;4.20;3.10;;;;;;;14.33;100.00;99277.92;105918;1251;62043;-73
2023/08/08 04:02:45;;;;;;;4.10;2.30;;;;;;;14.39;100.00;99282.02;105930;1253;61232;-74
2023/08/08 04:05:12;;;;;;;3.20;2.10;;;;;;;14.45;100.00;99285.41;105827;1250;74730;-75
2023/08/08 04:07:39;;;;;;;2.30;2.10;;;;;;;14.52;100.00;99290.70;105986;1251;71198;-73
2023/08/08 04:10:07;;;;;;;2.50;2.00;;;;;;;14.58;100.00;99297.99;105995;1251;72739;-74
2023/08/08 04:12:33;;;;;;;2.10;1.90;;;;;;;14.62;100.00;99300.96;105966;1251;61792;-74
2023/08/08 04:15:00;;;;;;;2.60;2.00;;;;;;;14.66;100.00;99298.60;105911;1251;61254;-74
2023/08/08 04:17:26;;;;;;;2.40;1.90;;;;;;;14.71;100.00;99299.38;105904;1253;61352;-74
2023/08/08 04:19:54;;;;;;;3.50;2.20;;;;;;;14.76;100.00;99303.51;105922;1250;71466;-74
2023/08/08 04:22:21;;;;;;;2.10;2.00;;;;;;;14.81;100.00;99310.12;105954;1249;72631;-74
2023/08/08 04:24:47;;;;;;;1.80;1.70;;;;;;;14.85;100.00;99307.78;105905;1251;61709;-74
2023/08/08 04:27:14;;;;;;;2.40;1.90;;;;;;;14.91;100.00;99305.73;105947;1251;61151;-74
2023/08/08 04:29:41;;;;;;;3.00;1.90;;;;;;;14.95;100.00;99305.13;105924;1253;74733;-75
2023/08/08 04:32:08;;;;;;;4.40;2.00;;;;;;;15.02;100.00;99318.37;105934;1251;71102;-75
2023/08/08 04:34:35;;;;;;;7.30;2.30;;;;;;;15.08;100.00;99321.89;105928;1249;72777;-75
2023/08/08 04:37:02;;;;;;;3.10;1.90;;;;;;;15.13;100.00;99326.17;106074;1250;61265;-75
2023/08/08 04:39:29;;;;;;;4.10;2.10;;;;;;;15.21;100.00;99332.64;105946;1250;61132;-74
2023/08/08 04:41:55;;;;;;;3.20;1.60;;;;;;;15.28;100.00;99336.52;106000;1250;61391;-75
2023/08/08 04:44:22;;;;;;;1.80;1.70;;;;;;;15.33;100.00;99338.86;105999;1251;71075;-76
2023/08/08 04:46:49;;;;;;;3.40;2.00;;;;;;;15.38;100.00;99344.92;105961;1253;72730;-74
2023/08/08 04:49:15;;;;;;;2.10;2.00;;;;;;;15.43;100.00;99345.00;105910;1251;61273;-74
2023/08/08 04:51:42;;;;;;;1.70;1.60;;;;;;;15.48;100.00;99340.09;105912;1253;61279;-75
2023/08/08 04:54:09;;;;;;;1.60;1.50;;;;;;;15.54;100.00;99334.67;105935;1251;74335;-75
2023/08/08 04:56:36;;;;;;;5.30;1.80;;;;;;;15.56;100.00;99331.70;105944;1253;69884;-74
2023/08/08 04:59:02;;;;;;;1.80;1.60;;;;;;;15.59;100.00;99328.70;105888;1251;61296;-74
2023/08/08 05:01:29;;;;;;;2.10;1.80;;;;;;;15.65;100.00;99324.09;105928;1250;61681;-74
2023/08/08 05:03:56;;;;;;;7.90;1.70;;;;;;;15.74;100.00;99326.61;105950;1250;61406;-73
2023/08/08 05:06:23;;;;;;;1.60;1.40;;;;;;;15.84;100.00;99330.11;105966;1250;74576;-74
2023/08/08 05:08:51;;;;;;;3.00;1.60;;;;;;;15.92;100.00;99328.58;105940;1251;70967;-74
2023/08/08 05:11:18;;;;;;;4.90;1.40;;;;;;;15.98;100.00;99322.34;105979;1249;71191;-73
2023/08/08 05:13:45;;;;;;;1.30;1.20;;;;;;;16.06;100.00;99326.85;105911;1250;61747;-74
2023/08/08 05:16:11;;;;;;;2.40;1.40;;;;;;;16.14;100.00;99326.55;105956;1253;61362;-74
2023/08/08 05:18:38;;;;;;;3.90;1.60;;;;;;;16.24;100.00;99329.68;105935;1250;73691;-74
2023/08/08 05:21:05;;;;;;;1.50;1.00;;;;;;;16.31;100.00;99330.77;106026;1253;69981;-74
2023/08/08 05:23:32;;;;;;;1.80;1.20;;;;;;;16.36;100.00;99327.52;105938;1253;61362;-74
2023/08/08 05:25:59;;;;;;;1.30;1.20;;;;;;;16.41;100.00;99329.65;106030;1250;62166;-75
2023/08/08 05:28:27;;;;;;;2.90;1.50;;;;;;;16.49;100.00;99330.09;105928;1251;61439;-75
2023/08/08 05:30:54;;;;;;;8.80;1.30;;;;;;;16.56;100.00;99336.00;105929;1250;73180;-75
2023/08/08 05:33:21;;;;;;;1.70;1.20;;;;;;;16.62;100.00;99326.05;105928;1255;71130;-74
2023/08/08 05:35:48;;;;;;;1.40;1.30;;;;;;;16.70;100.00;99325.02;105931;1251;61238;-74
2023/08/08 05:38:14;;;;;;;1.30;1.20;;;;;;;16.81;100.00;99322.44;105967;1251;61333;-74
2023/08/08 05:40:41;;;;;;;1.30;1.20;;;;;;;16.91;100.00;99318.29;105909;1251;61345;-74
2023/08/08 05:43:08;;;;;;;1.90;1.10;;;;;;;17.00;100.00;99320.65;106062;1253;74702;-74
2023/08/08 05:45:35;;;;;;;1.80;0.90;;;;;;;17.10;100.00;99311.92;105981;1250;69787;-74
2023/08/08 05:48:02;;;;;;;1.20;0.90;;;;;;;17.20;100.00;99305.92;105912;1250;72516;-75
2023/08/08 05:50:29;;;;;;;3.90;1.10;;;;;;;17.29;100.00;99304.69;105980;1251;61281;-74
2023/08/08 05:52:56;;;;;;;0.80;0.80;;;;;;;17.36;100.00;99310.38;105942;1253;61208;-74
2023/08/08 05:55:23;;;;;;;2.00;1.00;;;;;;;17.42;100.00;99306.63;106015;1250;74696;-74
2023/08/08 05:57:50;;;;;;;3.40;1.30;;;;;;;17.49;100.00;99306.73;105906;1250;71363;-73
2023/08/08 06:00:17;;;;;;;4.20;1.00;;;;;;;17.53;100.00;99308.41;105922;1250;72706;-73
2023/08/08 06:02:44;;;;;;;1.20;1.00;;;;;;;17.58;100.00;99312.66;105965;1249;61869;-74
2023/08/08 06:05:11;;;;;;;3.10;1.20;;;;;;;17.62;100.00;99310.27;105940;1249;61810;-73
2023/08/08 06:07:39;;;;;;;3.00;1.00;;;;;;;17.66;100.00;99315.84;105928;1251;74601;-74
2023/08/08 06:10:08;;;;;;;2.70;1.40;;;;;;;17.70;100.00;99310.77;105958;1250;71220;-74
2023/08/08 06:12:35;;;;;;;1.20;1.10;;;;;;;17.73;100.00;99308.27;106011;1251;72652;-73
2023/08/08 06:15:03;;;;;;;2.20;1.00;;;;;;;17.76;100.00;99311.59;105895;1251;61788;-75
2023/08/08 06:17:30;;;;;;;2.30;1.10;;;;;;;17.80;100.00;99314.55;105986;1251;61160;-74
2023/08/08 06:19:57;;;;;;;3.60;1.20;;;;;;;17.80;100.00;99311.70;105933;1250;74423;-73
2023/08/08 06:22:23;;;;;;;4.30;1.10;;;;;;;17.80;100.00;99311.71;105920;1250;69675;-74
2023/08/08 06:24:50;;;;;;;1.10;1.10;;;;;;;17.82;100.00;99315.48;105914;1251;72765;-74
2023/08/08 06:27:17;;;;;;;1.30;1.20;;;;;;;17.87;100.00;99315.20;105900;1252;61352;-75
2023/08/08 06:29:44;;;;;;;3.30;1.00;;;;;;;17.94;100.00;99316.50;105946;1253;61347;-75
2023/08/08 06:32:10;;;;;;;4.20;1.00;;;;;;;18.01;100.00;99310.48;105912;1250;74613;-74
2023/08/08 06:34:37;;;;;;;1.30;0.80;;;;;;;18.05;100.00;99306.52;105966;1250;71082;-74
2023/08/08 06:37:04;;;;;;;0.80;0.80;;;;;;;18.09;100.00;99311.16;105906;1250;73031;-74
2023/08/08 06:39:31;;;;;;;3.00;1.10;;;;;;;18.18;100.00;99310.23;106047;1250;61362;-74
2023/08/08 06:41:58;;;;;;;1.60;1.10;;;;;;;18.25;100.00;99309.72;105966;1253;61241;-74
2023/08/08 06:44:32;;;;;;;3.10;1.50;;;;;;;18.31;100.00;99314.09;105771;1251;74500;-74
2023/08/08 06:46:59;;;;;;;7.80;1.40;;;;;;;18.37;100.00;99309.41;106041;1250;71144;-74
2023/08/08 06:49:26;;;;;;;1.40;1.30;;;;;;;18.41;100.00;99307.20;105926;1250;72433;-77
2023/08/08 06:51:53;;;;;;;2.30;1.40;;;;;;;18.48;100.00;99321.48;106004;1250;61279;-75
2023/08/08 06:54:20;;;;;;;2.20;1.30;;;;;;;18.54;100.00;99323.00;105972;1251;61298;-74
2023/08/08 06:56:46;;;;;;;2.50;1.00;;;;;;;18.57;100.00;99334.65;105943;1253;74443;-75
2023/08/08 06:59:14;;;;;;;2.70;1.40;;;;;;;18.61;100.00;99337.40;105971;1250;70941;-75
2023/08/08 07:01:41;;;;;;;1.70;1.20;;;;;;;18.67;100.00;99334.66;105921;1250;72431;-76
2023/08/08 07:04:07;;;;;;;2.90;1.00;;;;;;;18.73;100.00;99333.52;105885;1250;61352;-73
2023/08/08 07:06:34;;;;;;;3.40;1.20;;;;;;;18.81;100.00;99327.50;105892;1253;61257;-75
2023/08/08 07:09:01;;;;;;;1.30;1.20;;;;;;;18.90;100.00;99331.10;106069;1253;74701;-75
2023/08/08 07:11:29;;;;;;;2.00;1.20;;;;;;;18.94;100.00;99332.04;105949;1253;71022;-75
2023/08/08 07:13:56;;;;;;;2.80;1.20;;;;;;;18.92;100.00;99333.61;105940;1253;71042;-75
2023/08/08 07:16:23;;;;;;;2.00;1.10;;;;;;;18.91;100.00;99331.36;105981;1249;61217;-74
2023/08/08 07:18:50;;;;;;;1.40;1.10;;;;;;;18.94;100.00;99329.02;106011;1253;61257;-75
2023/08/08 07:21:20;;;;;;;2.80;1.10;;;;;;;18.98;100.00;99324.47;105949;1251;74580;-75
2023/08/08 07:23:47;;;;;;;2.90;1.00;;;;;;;19.01;100.00;99329.07;105966;1251;70846;-75
2023/08/08 07:26:14;;;;;;;1.10;1.00;;;;;;;19.06;100.00;99333.31;105940;1251;72469;-75
2023/08/08 07:28:40;;;;;;;3.90;1.20;;;;;;;19.11;100.00;99334.21;105892;1251;61250;-74
2023/08/08 07:31:07;;;;;;;5.80;1.10;;;;;;;19.18;100.00;99335.33;105953;1253;61369;-75
2023/08/08 07:33:34;;;;;;;3.10;0.90;;;;;;;19.26;100.00;99333.27;105987;1253;74504;-73
2023/08/08 07:36:00;;;;;;;2.70;1.00;;;;;;;19.37;100.00;99325.89;106000;1253;71093;-76
2023/08/08 07:38:27;;;;;;;2.40;1.00;;;;;;;19.54;100.00;99324.84;105951;1254;72582;-74
2023/08/08 07:40:55;;;;;;;0.90;0.70;;;;;;;19.67;100.00;99314.77;106007;1250;61391;-74
2023/08/08 07:43:22;;;;;;;0.80;0.60;;;;;;;19.76;100.00;99303.86;106113;1251;61314;-75
2023/08/08 07:45:48;;;;;;;2.10;0.90;;;;;;;19.85;100.00;99305.12;105909;1251;74642;-75
2023/08/08 07:48:15;;;;;;;0.90;0.90;;;;;;;19.94;100.00;99308.52;105883;1253;71069;-75
2023/08/08 07:50:42;;;;;;;1.30;1.10;;;;;;;19.95;100.00;99300.06;105961;1253;71287;-75
2023/08/08 07:53:09;;;;;;;3.30;0.90;;;;;;;19.99;100.00;99303.34;105879;1256;61272;-75
2023/08/08 07:55:36;;;;;;;3.00;0.70;;;;;;;20.02;100.00;99304.83;105933;1251;61229;-74
2023/08/08 07:58:03;;;;;;;0.90;0.90;;;;;;;20.10;100.00;99302.48;105933;1253;72181;-75
2023/08/08 08:00:30;;;;;;;0.70;0.70;;;;;;;20.19;100.00;99309.95;105989;1251;70992;-75
2023/08/08 08:02:57;;;;;;;4.00;0.70;;;;;;;20.27;100.00;99317.70;105935;1253;72585;-75
2023/08/08 08:05:24;;;;;;;0.60;0.60;;;;;;;20.35;100.00;99312.27;106008;1256;61323;-74
2023/08/08 08:07:51;;;;;;;2.50;0.70;;;;;;;20.39;100.00;99314.45;106024;1249;61323;-74
2023/08/08 08:10:18;;;;;;;2.40;0.70;;;;;;;20.46;100.00;99320.34;105969;1253;73813;-74
2023/08/08 08:12:45;;;;;;;0.70;0.60;;;;;;;20.48;100.00;99321.30;105226;1254;1003764;-75
2023/08/08 08:15:13;;;;;;;2.20;0.80;;;;;;;20.49;100.00;99320.48;105929;1253;72550;-74
2023/08/08 08:17:39;;;;;;;1.00;0.80;;;;;;;20.50;100.00;99307.89;106038;1253;61368;-75
2023/08/08 08:20:10;;;;;;;3.00;0.80;;;;;;;20.55;100.00;99304.62;105979;1253;61362;-75
2023/08/08 08:22:38;;;;;;;0.60;0.60;;;;;;;20.61;100.00;99295.64;106095;1253;74569;-75
2023/08/08 08:25:07;;;;;;;0.70;0.70;;;;;;;20.67;100.00;99290.75;106007;1251;70816;-74
2023/08/08 08:27:36;;;;;;;4.40;0.80;;;;;;;20.71;100.00;99292.73;106011;1253;72682;-75
2023/08/08 08:30:05;;;;;;;0.70;0.60;;;;;;;20.72;100.00;99290.10;106011;1251;61331;-75
2023/08/08 08:32:33;;;;;;;3.00;0.70;;;;;;;20.70;100.00;99296.55;106037;1251;61164;-74
2023/08/08 08:35:03;;;;;;;1.00;0.80;;;;;;;20.67;100.00;99295.38;106012;1251;74496;-74
2023/08/08 08:37:30;;;;;;;1.20;0.70;;;;;;;20.63;100.00;99293.55;105984;1253;71319;-75
2023/08/08 08:39:57;;;;;;;1.40;0.70;;;;;;;20.64;100.00;99294.70;105983;1253;72411;-75
2023/08/08 08:42:24;;;;;;;1.30;0.80;;;;;;;20.70;100.00;99300.41;105940;1251;61256;-74
2023/08/08 08:44:51;;;;;;;0.70;0.70;;;;;;;20.73;100.00;99298.02;105908;1254;61410;-75
2023/08/08 08:47:18;;;;;;;0.50;0.50;;;;;;;20.77;100.00;99295.81;105825;1255;73190;-75
2023/08/08 08:49:45;;;;;;;2.60;0.80;;;;;;;20.81;100.00;99291.98;105740;1257;71075;-75
2023/08/08 08:52:12;;;;;;;2.20;0.60;;;;;;;20.89;100.00;99292.67;105950;1251;72512;-75
2023/08/08 08:54:39;;;;;;;2.00;0.70;;;;;;;21.02;100.00;99293.60;105819;1251;61346;-75
2023/08/08 08:57:05;;;;;;;1.30;0.80;;;;;;;21.09;100.00;99295.67;105855;1255;61636;-75
2023/08/08 08:59:32;;;;;;;1.40;0.70;;;;;;;21.11;100.00;99289.83;105936;1253;61232;-75
2023/08/08 09:01:59;;;;;;;0.90;0.50;;;;;;;21.11;100.00;99282.71;106010;1257;70930;-76
2023/08/08 09:04:28;;;;;;;0.50;0.50;;;;;;;21.14;100.00;99280.85;105707;1257;72575;-75
2023/08/08 09:06:55;;;;;;;1.40;0.50;;;;;;;21.15;100.00;99282.89;105979;1251;61166;-75
2023/08/08 09:09:22;;;;;;;1.20;0.30;;;;;;;21.17;100.00;99281.50;105808;1256;61215;-76
2023/08/08 09:11:50;;;;;;;3.30;0.70;;;;;;;21.22;100.00;99286.13;105957;1252;73208;-74
2023/08/08 09:14:18;;;;;;;3.90;0.60;;;;;;;21.21;100.00;99276.19;105969;1253;70817;-74
2023/08/08 09:16:46;;;;;;;4.70;0.70;;;;;;;21.26;100.00;99276.83;106091;1251;72502;-75
2023/08/08 09:19:14;;;;;;;2.80;0.70;;;;;;;21.36;100.00;99284.00;105952;1253;61235;-75
2023/08/08 09:21:41;;;;;;;3.30;0.80;;;;;;;21.46;100.00;99284.66;105917;1250;61234;-75
2023/08/08 09:24:08;;;;;;;0.70;0.70;;;;;;;21.54;100.00;99287.56;105907;1253;74395;-75
2023/08/08 09:26:34;;;;;;;2.30;0.50;;;;;;;21.56;100.00;99285.42;105895;1251;71100;-74
2023/08/08 09:29:02;;;;;;;1.20;0.70;;;;;;;21.53;100.00;99287.14;105980;1254;71446;-74
2023/08/08 09:31:32;;;;;;;1.40;1.20;;;;;;;21.46;100.00;99282.52;105951;1251;61393;-74
2023/08/08 09:33:59;;;;;;;0.60;0.60;;;;;;;21.36;100.00;99280.29;105868;1251;61320;-75
2023/08/08 09:36:27;;;;;;;0.60;0.60;;;;;;;21.33;100.00;99281.58;105950;1256;74633;-74
2023/08/08 09:38:54;;;;;;;1.60;0.90;;;;;;;21.40;100.00;99289.56;105947;1253;71170;-74
2023/08/08 09:41:22;;;;;;;1.00;0.80;;;;;;;21.54;100.00;99296.89;105951;1254;72608;-74
2023/08/08 09:43:49;;;;;;;4.00;1.20;;;;;;;21.71;100.00;99298.29;105940;1253;61366;-74
2023/08/08 09:46:16;;;;;;;1.70;0.80;;;;;;;21.86;100.00;99294.17;105933;1254;61276;-74
2023/08/08 09:48:43;;;;;;;0.60;0.60;;;;;;;21.96;100.00;99295.67;105911;1257;76422;-75
2023/08/08 09:51:10;;;;;;;0.50;0.40;;;;;;;22.03;100.00;99289.31;105789;1251;71061;-74
2023/08/08 09:53:37;;;;;;;3.30;1.00;;;;;;;22.07;100.00;99286.80;105960;1253;72508;-75
2023/08/08 09:56:04;;;;;;;7.50;1.30;;;;;;;22.05;100.00;99292.88;105941;1256;61280;-75
2023/08/08 09:58:32;;;;;;;4.30;0.70;;;;;;;21.91;100.00;99296.79;105942;1253;61753;-74
2023/08/08 10:00:58;;;;;;;4.90;0.80;;;;;;;21.74;100.00;99289.63;105950;1253;74315;-75
2023/08/08 10:03:29;;;;;;;1.20;0.50;;;;;;;21.66;100.00;99293.91;106002;1253;70935;-75
2023/08/08 10:05:56;;;;;;;1.30;0.70;;;;;;;21.59;100.00;99293.41;106015;1249;72790;-75
2023/08/08 10:08:23;;;;;;;0.50;0.50;;;;;;;21.53;100.00;99293.92;106017;1254;61384;-75
2023/08/08 10:10:50;;;;;;;0.70;0.50;;;;;;;21.48;100.00;99293.01;106084;1252;61288;-75
2023/08/08 10:13:21;;;;;;;3.00;0.60;;;;;;;21.48;100.00;99296.59;106105;1254;74330;-76
2023/08/08 10:15:47;;;;;;;1.60;0.80;;;;;;;21.47;100.00;99298.67;106029;1252;70793;-73
2023/08/08 10:18:14;;;;;;;2.40;0.90;;;;;;;21.45;100.00;99301.30;105873;1251;72684;-75
2023/08/08 10:20:48;;;;;;;6.20;0.70;;;;;;;21.43;100.00;99307.67;106079;1251;61355;-74
2023/08/08 10:23:15;;;;;;;3.70;0.60;;;;;;;21.40;100.00;99311.69;105879;1257;61158;-75
2023/08/08 10:25:46;;;;;;;0.70;0.60;;;;;;;21.38;100.00;99307.24;106106;1254;74708;-75
2023/08/08 10:28:14;;;;;;;5.10;1.10;;;;;;;21.37;100.00;99307.00;105994;1251;71162;-74
2023/08/08 10:30:58;;;;;;;2.90;1.70;;;;;;;21.38;100.00;99303.87;106000;1249;71870;-75
2023/08/08 10:33:26;;;;;;;2.70;0.50;;;;;;;21.37;100.00;99295.23;106034;1251;61284;-75
2023/08/08 10:35:56;;;;;;;5.30;1.20;;;;;;;21.41;100.00;99297.53;106125;1254;61238;-74
2023/08/08 10:38:24;;;;;;;0.60;0.60;;;;;;;21.46;100.00;99298.90;106017;1253;74497;-74
2023/08/08 10:40:58;;;;;;;2.60;0.80;;;;;;;21.52;100.00;99298.96;106097;1253;71604;-75
2023/08/08 10:43:27;;;;;;;2.00;1.20;;;;;;;21.58;100.00;99294.73;105903;1256;71249;-75
2023/08/08 10:45:58;;;;;;;1.80;1.10;;;;;;;21.59;100.00;99289.83;106103;1251;61325;-75
2023/08/08 10:48:49;;;;;;;2.70;0.50;;;;;;;21.57;100.00;99292.68;106015;1253;61343;-75
2023/08/08 10:51:16;;;;;;;1.00;0.50;;;;;;;21.54;100.00;99298.86;106006;1251;74436;-75
2023/08/08 10:53:43;;;;;;;0.50;0.50;;;;;;;21.50;100.00;99306.05;105722;1257;69825;-74
2023/08/08 10:56:12;;;;;;;1.30;0.50;;;;;;;21.51;100.00;99310.43;106010;1253;73290;-77
2023/08/08 10:58:47;;;;;;;0.80;0.60;;;;;;;21.46;100.00;99304.05;106032;1263;61356;-75
2023/08/08 11:01:14;;;;;;;0.50;0.50;;;;;;;21.36;100.00;99299.89;105948;1251;61242;-76
2023/08/08 11:03:42;;;;;;;1.10;0.90;;;;;;;21.30;100.00;99304.54;105993;1251;74650;-74
2023/08/08 11:06:10;;;;;;;1.70;1.00;;;;;;;21.31;100.00;99308.15;105967;1252;72384;-75
2023/08/08 11:08:40;;;;;;;1.80;0.80;;;;;;;21.34;100.00;99303.11;105945;1254;72369;-75
2023/08/08 11:11:07;;;;;;;1.30;0.70;;;;;;;21.38;100.00;99305.30;105982;1249;61369;-75
2023/08/08 11:13:34;;;;;;;6.70;0.70;;;;;;;21.43;100.00;99307.90;105504;1255;438457;-75
2023/08/08 11:16:01;;;;;;;4.00;2.40;;;;;;;21.43;100.00;99298.44;105969;1254;74631;-75
2023/08/08 11:18:29;;;;;;;0.60;0.60;;;;;;;21.48;100.00;99302.66;106024;1253;70129;-75